70.8°F
Current conditions from King Hill
Updated every 5 minutes
 
  Wednesday July 23, 2014

Station Historical Data
Daily Summary for June 28, 2011 Units:  Metric    English   Both
« Previous Day
Next Day »
Daily Weekly Monthly Yearly Custom
  High: Low: Average:
Temperature: 25.9 °C 12.8 °C 19.9 °C
Dew Point: 20.5 °C 12 °C 16.5 °C
Humidity: 97% 64% 82%
Wind Speed: 14.5km/h 0km/h 5.1km/h
Wind Gust: 30.6km/h - -
Wind- - SSW
Pressure: 1013.4 hPa 1005.3 hPa -
Precipitation: 0 mm    
Historical Graphs
 
 
Tabular Data for June 28, 2011
Time Temperature Dew Point Pressure Wind Wind Speed Wind Gust Humidity Daily Rainfall
00:00 14.6 °C 13.3 °C 1013.4 hPa Calm     92% 0 mm
00:05 14.5 °C 13.2 °C 1013.4 hPa Calm     92% 0 mm
00:10 14.4 °C 13.3 °C 1013.4 hPa Calm     93% 0 mm
00:15 14.2 °C 13.1 °C 1013.4 hPa Calm     93% 0 mm
00:20 14.2 °C 13.1 °C 1013.4 hPa Calm     93% 0 mm
00:25 14.2 °C 13.1 °C 1013.4 hPa Calm     93% 0 mm
00:30 14.2 °C 13.1 °C 1013.4 hPa Calm     93% 0 mm
00:35 14.2 °C 13.1 °C 1013.4 hPa Calm     93% 0 mm
00:40 14 °C 12.9 °C 1013.4 hPa Calm     93% 0 mm
00:45 13.9 °C 12.8 °C 1013.4 hPa Calm     93% 0 mm
00:50 13.9 °C 12.8 °C 1013.4 hPa Calm     93% 0 mm
00:55 13.9 °C 13 °C 1013.4 hPa Calm     94% 0 mm
01:00 14 °C 13.1 °C 1013.4 hPa Calm     94% 0 mm
01:05 13.9 °C 13 °C 1013.4 hPa Calm     94% 0 mm
01:10 13.9 °C 12.9 °C 1013.1 hPa Calm     94% 0 mm
01:15 13.8 °C 12.9 °C 1013.1 hPa Calm     94% 0 mm
01:20 13.8 °C 12.8 °C 1013.1 hPa Calm     94% 0 mm
01:25 13.7 °C 12.7 °C 1013.1 hPa Calm     94% 0 mm
01:30 13.7 °C 12.7 °C 1013.1 hPa Calm     94% 0 mm
01:40 13.4 °C 12.5 °C 1013.1 hPa Calm     94% 0 mm
01:45 13.3 °C 12.4 °C 1013.1 hPa Calm     94% 0 mm
01:50 13.2 °C 12.3 °C 1013.1 hPa Calm     94% 0 mm
01:55 13.2 °C 12.2 °C 1013.1 hPa Calm     94% 0 mm
02:00 13.2 °C 12.2 °C 1013.1 hPa Calm     94% 0 mm
02:05 13.1 °C 12.1 °C 1012.8 hPa Calm     94% 0 mm
02:10 13 °C 12.1 °C 1012.8 hPa Calm     94% 0 mm
02:15 12.9 °C 12 °C 1012.8 hPa Calm     94% 0 mm
02:20 13 °C 12.1 °C 1012.8 hPa Calm     94% 0 mm
02:25 12.9 °C 12 °C 1012.8 hPa Calm     94% 0 mm
02:30 12.9 °C 12.1 °C 1012.8 hPa Calm     95% 0 mm
02:35 12.8 °C 12.1 °C 1012.8 hPa Calm     95% 0 mm
02:40 12.8 °C 12 °C 1012.4 hPa Calm     95% 0 mm
02:45 12.8 °C 12 °C 1012.4 hPa Calm     95% 0 mm
02:50 12.8 °C 12.1 °C 1012.4 hPa Calm     95% 0 mm
02:55 12.9 °C 12.1 °C 1012.4 hPa Calm     95% 0 mm
03:00 12.9 °C 12.2 °C 1012.4 hPa Calm     95% 0 mm
03:10 12.9 °C 12.2 °C 1012.4 hPa Calm     95% 0 mm
03:20 13 °C 12.2 °C 1012.1 hPa Calm     95% 0 mm
03:25 13 °C 12.2 °C 1012.1 hPa Calm     95% 0 mm
03:30 13.1 °C 12.3 °C 1012.1 hPa Calm     95% 0 mm
03:35 13.2 °C 12.4 °C 1011.7 hPa Calm     95% 0 mm
03:40 13.2 °C 12.4 °C 1011.7 hPa Calm     95% 0 mm
03:45 13.2 °C 12.4 °C 1011.7 hPa Calm     95% 0 mm
03:50 13.3 °C 12.7 °C 1011.7 hPa Calm     96% 0 mm
03:55 13.4 °C 12.8 °C 1011.7 hPa Calm     96% 0 mm
04:00 13.4 °C 12.8 °C 1011.7 hPa Calm     96% 0 mm
04:05 13.4 °C 12.8 °C 1011.7 hPa Calm     96% 0 mm
04:10 13.3 °C 12.7 °C 1011.7 hPa Calm     96% 0 mm
04:15 13.2 °C 12.4 °C 1011.7 hPa Calm     95% 0 mm
04:20 13.2 °C 12.4 °C 1011.7 hPa Calm     95% 0 mm
04:25 13.1 °C 12.3 °C 1011.7 hPa Calm     95% 0 mm
04:30 13 °C 12.4 °C 1011.7 hPa Calm     96% 0 mm
04:35 12.9 °C 12.3 °C 1012.1 hPa Calm     96% 0 mm
04:40 12.8 °C 12.1 °C 1011.7 hPa Calm     95% 0 mm
04:45 12.8 °C 12 °C 1011.7 hPa Calm     95% 0 mm
04:50 12.8 °C 12.2 °C 1011.7 hPa Calm     96% 0 mm
04:55 12.8 °C 12.2 °C 1011.7 hPa Calm     96% 0 mm
05:00 12.8 °C 12.2 °C 1011.7 hPa Calm     96% 0 mm
05:05 12.8 °C 12.2 °C 1011.7 hPa Calm     96% 0 mm
05:10 12.9 °C 12.3 °C 1011.4 hPa Calm     96% 0 mm
05:15 12.9 °C 12.3 °C 1011.7 hPa Calm     96% 0 mm
05:20 12.9 °C 12.3 °C 1011.7 hPa Calm     96% 0 mm
05:25 12.9 °C 12.3 °C 1011.7 hPa Calm     96% 0 mm
05:30 13 °C 12.4 °C 1012.1 hPa Calm     96% 0 mm
05:35 13.1 °C 12.4 °C 1012.1 hPa Calm     96% 0 mm
05:40 13.1 °C 12.5 °C 1012.1 hPa Calm     96% 0 mm
05:45 13.2 °C 12.6 °C 1012.1 hPa Calm     96% 0 mm
05:50 13.3 °C 12.7 °C 1012.1 hPa Calm     96% 0 mm
06:00 13.5 °C 12.9 °C 1012.1 hPa Calm     96% 0 mm
06:05 13.6 °C 13 °C 1012.1 hPa Calm     96% 0 mm
06:10 13.7 °C 13.1 °C 1012.1 hPa Calm     96% 0 mm
06:15 13.8 °C 13.2 °C 1012.1 hPa Calm     96% 0 mm
06:20 13.9 °C 13.3 °C 1012.1 hPa Calm     96% 0 mm
06:25 14.1 °C 13.5 °C 1012.1 hPa Calm     96% 0 mm
06:30 14.3 °C 13.7 °C 1011.7 hPa Calm     96% 0 mm
06:35 14.4 °C 13.8 °C 1011.7 hPa Calm     96% 0 mm
06:40 14.6 °C 13.9 °C 1011.7 hPa Calm     96% 0 mm
06:45 14.7 °C 14.1 °C 1011.7 hPa Calm     96% 0 mm
06:50 14.8 °C 14.2 °C 1011.4 hPa Calm     96% 0 mm
07:00 15 °C 14.4 °C 1011.4 hPa Calm     96% 0 mm
07:05 15.1 °C 14.5 °C 1011.4 hPa Calm     96% 0 mm
07:10 15.3 °C 14.7 °C 1011.4 hPa Calm     96% 0 mm
07:15 15.4 °C 14.8 °C 1011.4 hPa Calm     96% 0 mm
07:20 15.6 °C 14.9 °C 1011.4 hPa Calm     96% 0 mm
07:25 15.8 °C 15.2 °C 1011.4 hPa Calm     96% 0 mm
07:30 16.2 °C 15.6 °C 1011.4 hPa Calm     96% 0 mm
07:35 16.4 °C 15.9 °C 1011.1 hPa Calm     97% 0 mm
07:40 16.7 °C 16.2 °C 1011.1 hPa Calm     97% 0 mm
07:50 17 °C 16.5 °C 1011.1 hPa Calm     97% 0 mm
07:55 17.1 °C 16.6 °C 1011.1 hPa Calm     97% 0 mm
08:00 17.2 °C 16.6 °C 1011.1 hPa Calm     96% 0 mm
08:05 17.3 °C 16.6 °C 1011.1 hPa Calm     96% 0 mm
08:10 17.4 °C 16.8 °C 1011.1 hPa Calm     96% 0 mm
08:15 17.6 °C 16.9 °C 1011.1 hPa Calm     96% 0 mm
08:20 17.6 °C 16.7 °C 1011.4 hPa Calm     95% 0 mm
08:25 17.7 °C 16.7 °C 1011.1 hPa Calm     94% 0 mm
08:30 18.2 °C 17.4 °C 1011.1 hPa Calm   1.6 km/h 95% 0 mm
08:35 18.6 °C 17.8 °C 1011.1 hPa Calm   3.2 km/h 95% 0 mm
08:40 18.9 °C 17.7 °C 1011.1 hPa Calm   3.2 km/h 93% 0 mm
08:45 19.3 °C 16.7 °C 1011.1 hPa South 4.8 km/h 11.3 km/h 85% 0 mm
08:55 20.1 °C 16.8 °C 1011.1 hPa SW 1.6 km/h 9.7 km/h 81% 0 mm
09:00 20.3 °C 16.5 °C 1010.7 hPa SSW 1.6 km/h 9.7 km/h 79% 0 mm
09:05 20.4 °C 16.6 °C 1011.1 hPa SSW 1.6 km/h 9.7 km/h 79% 0 mm
09:10 20.6 °C 16.8 °C 1011.1 hPa SSW 4.8 km/h 9.7 km/h 79% 0 mm
09:15 20.7 °C 17.2 °C 1011.1 hPa SSW 1.6 km/h 11.3 km/h 80% 0 mm
09:20 20.8 °C 17.7 °C 1010.7 hPa Calm   11.3 km/h 82% 0 mm
09:25 20.9 °C 17.6 °C 1011.1 hPa Calm   8 km/h 81% 0 mm
09:30 21 °C 17.4 °C 1011.1 hPa SSW 1.6 km/h 11.3 km/h 80% 0 mm
09:35 21.1 °C 17.7 °C 1011.1 hPa SSW 3.2 km/h 11.3 km/h 81% 0 mm
09:40 21.4 °C 17.6 °C 1011.1 hPa SSW 3.2 km/h 11.3 km/h 79% 0 mm
09:45 21.6 °C 17.6 °C 1011.1 hPa South 4.8 km/h 11.3 km/h 78% 0 mm
09:50 21.5 °C 17.5 °C 1011.1 hPa SW 1.6 km/h 12.9 km/h 78% 0 mm
09:55 21.4 °C 17.7 °C 1011.1 hPa Calm   12.9 km/h 79% 0 mm
10:00 21.6 °C 17.6 °C 1011.1 hPa Calm   11.3 km/h 78% 0 mm
10:05 21.9 °C 18.6 °C 1010.7 hPa Calm   11.3 km/h 81% 0 mm
10:10 22.4 °C 18.4 °C 1010.7 hPa SW 1.6 km/h 9.7 km/h 78% 0 mm
10:15 22.8 °C 18.3 °C 1010.7 hPa SSW 3.2 km/h 12.9 km/h 76% 0 mm
10:20 23.2 °C 18.3 °C 1010.7 hPa SSW 1.6 km/h 12.9 km/h 74% 0 mm
10:25 23.4 °C 18.1 °C 1010.7 hPa SW 3.2 km/h 12.9 km/h 72% 0 mm
10:30 23.6 °C 18.7 °C 1010.7 hPa SW 1.6 km/h 12.9 km/h 74% 0 mm
10:35 23.8 °C 18.3 °C 1010.7 hPa SSW 3.2 km/h 14.5 km/h 71% 0 mm
10:45 24 °C 18.7 °C 1010.7 hPa SE 3.2 km/h 12.9 km/h 72% 0 mm
10:50 24.3 °C 18.9 °C 1010.7 hPa SW 1.6 km/h 12.9 km/h 72% 0 mm
10:55 24.3 °C 18.7 °C 1010.7 hPa SSW 6.4 km/h 11.3 km/h 71% 0 mm
11:00 24.2 °C 18.8 °C 1010.7 hPa SW 1.6 km/h 11.3 km/h 72% 0 mm
11:05 24.3 °C 18.7 °C 1010.4 hPa SW 3.2 km/h 12.9 km/h 71% 0 mm
11:10 24.3 °C 18.7 °C 1010.4 hPa SW 6.4 km/h 16.1 km/h 71% 0 mm
11:15 24.3 °C 18.7 °C 1010.4 hPa SSW 3.2 km/h 16.1 km/h 71% 0 mm
11:20 24.2 °C 18.6 °C 1010.4 hPa SSW 3.2 km/h 12.9 km/h 71% 0 mm
11:25 24.2 °C 18.6 °C 1010 hPa SSW 4.8 km/h 12.9 km/h 71% 0 mm
11:30 24.2 °C 18.8 °C 1010 hPa SW 4.8 km/h 11.3 km/h 72% 0 mm
11:35 24.1 °C 18.6 °C 1010 hPa SW 4.8 km/h 12.9 km/h 71% 0 mm
11:40 24.3 °C 19.1 °C 1010 hPa SW 6.4 km/h 14.5 km/h 73% 0 mm
11:50 24.9 °C 19.6 °C 1010 hPa SW 4.8 km/h 14.5 km/h 72% 0 mm
11:55 25.2 °C 19.4 °C 1009.7 hPa South 3.2 km/h 14.5 km/h 70% 0 mm
12:00 25.3 °C 19.7 °C 1009.7 hPa SSW 3.2 km/h 12.9 km/h 71% 0 mm
12:05 25.2 °C 20 °C 1009.7 hPa Calm   19.3 km/h 73% 0 mm
12:10 25.1 °C 19.1 °C 1009.7 hPa SSW 4.8 km/h 19.3 km/h 69% 0 mm
12:15 25.1 °C 20.4 °C 1009.7 hPa SSW 4.8 km/h 16.1 km/h 75% 0 mm
12:20 25.4 °C 20.5 °C 1009.7 hPa SW 1.6 km/h 14.5 km/h 74% 0 mm
12:25 25.6 °C 19.4 °C 1009.7 hPa South 1.6 km/h 11.3 km/h 69% 0 mm
12:30 25.5 °C 20.1 °C 1009.7 hPa South 1.6 km/h 11.3 km/h 72% 0 mm
12:35 25.5 °C 19.8 °C 1009.7 hPa South 3.2 km/h 9.7 km/h 71% 0 mm
12:40 25.7 °C 19.6 °C 1009.4 hPa SSW 1.6 km/h 9.7 km/h 69% 0 mm
12:45 25.8 °C 20.3 °C 1009.4 hPa SSW 1.6 km/h 8 km/h 72% 0 mm
12:50 25.7 °C 19.3 °C 1009.4 hPa SW 8 km/h 14.5 km/h 68% 0 mm
12:55 25.8 °C 20.1 °C 1009.4 hPa Calm   14.5 km/h 71% 0 mm
13:00 25.9 °C 18.8 °C 1009.4 hPa SW 6.4 km/h 14.5 km/h 65% 0 mm
13:05 25.8 °C 19.4 °C 1009.4 hPa South 1.6 km/h 16.1 km/h 68% 0 mm
13:10 25.5 °C 18.9 °C 1009.4 hPa SW 8 km/h 16.1 km/h 67% 0 mm
13:15 25.3 °C 18.9 °C 1009 hPa SW 1.6 km/h 14.5 km/h 68% 0 mm
13:20 25.3 °C 18.9 °C 1009.4 hPa SW 6.4 km/h 14.5 km/h 68% 0 mm
13:25 25 °C 18.2 °C 1009 hPa SSW 4.8 km/h 19.3 km/h 66% 0 mm
13:30 24.9 °C 18.4 °C 1009 hPa SW 9.7 km/h 24.1 km/h 67% 0 mm
13:35 25 °C 18.4 °C 1009 hPa SW 6.4 km/h 24.1 km/h 67% 0 mm
13:40 25 °C 17.9 °C 1009 hPa SW 8 km/h 20.9 km/h 65% 0 mm
13:45 24.9 °C 18.6 °C 1009 hPa SW 8 km/h 22.5 km/h 68% 0 mm
13:50 24.7 °C 18.4 °C 1009 hPa SW 1.6 km/h 22.5 km/h 68% 0 mm
13:55 24.7 °C 18.7 °C 1009 hPa SW 1.6 km/h 19.3 km/h 69% 0 mm
14:00 24.8 °C 19.2 °C 1009 hPa SW 3.2 km/h 14.5 km/h 71% 0 mm
14:05 25.1 °C 18.7 °C 1009 hPa SSW 6.4 km/h 19.3 km/h 68% 0 mm
14:10 24.9 °C 17.7 °C 1008.7 hPa SW 14.5 km/h 27.4 km/h 64% 0 mm
14:15 25 °C 18.7 °C 1008.7 hPa SSW 4.8 km/h 27.4 km/h 68% 0 mm
14:20 24.9 °C 17.9 °C 1008.7 hPa SW 11.3 km/h 20.9 km/h 65% 0 mm
14:25 24.7 °C 17.9 °C 1008.7 hPa SSW 6.4 km/h 20.9 km/h 66% 0 mm
14:30 24.6 °C 18.1 °C 1008.7 hPa SW 8 km/h 22.5 km/h 67% 0 mm
14:40 24.7 °C 18.4 °C 1008.7 hPa SSW 8 km/h 20.9 km/h 68% 0 mm
14:45 24.8 °C 18.5 °C 1008.7 hPa SSW 8 km/h 25.7 km/h 68% 0 mm
14:50 24.8 °C 18 °C 1008.7 hPa SW 11.3 km/h 25.7 km/h 66% 0 mm
14:55 25 °C 18.4 °C 1008.4 hPa SW 9.7 km/h 25.7 km/h 67% 0 mm
15:00 25.1 °C 19.1 °C 1008.4 hPa SSW 3.2 km/h 25.7 km/h 69% 0 mm
15:05 24.9 °C 18.9 °C 1008.4 hPa SSW 9.7 km/h 25.7 km/h 69% 0 mm
15:10 24.9 °C 18.6 °C 1008.4 hPa SSW 3.2 km/h 25.7 km/h 68% 0 mm
15:15 25.2 °C 18.7 °C 1008 hPa SW 9.7 km/h 20.9 km/h 67% 0 mm
15:25 25.1 °C 18.6 °C 1008 hPa SSW 11.3 km/h 29 km/h 67% 0 mm
15:30 25.2 °C 19.4 °C 1008 hPa SSW 4.8 km/h 25.7 km/h 70% 0 mm
15:35 25.4 °C 19.1 °C 1008 hPa SSW 9.7 km/h 29 km/h 68% 0 mm
15:40 25.6 °C 19.9 °C 1008 hPa SSW 4.8 km/h 29 km/h 71% 0 mm
15:45 25.7 °C 19.2 °C 1008 hPa SW 4.8 km/h 24.1 km/h 67% 0 mm
15:50 25.8 °C 19.2 °C 1007.7 hPa SW 8 km/h 19.3 km/h 67% 0 mm
15:55 25.6 °C 19.2 °C 1007.7 hPa South 8 km/h 27.4 km/h 68% 0 mm
16:00 25.2 °C 18.4 °C 1007.7 hPa SSW 9.7 km/h 27.4 km/h 66% 0 mm
16:10 24.5 °C 18.7 °C 1007.3 hPa SW 6.4 km/h 22.5 km/h 70% 0 mm
16:15 24.4 °C 19.1 °C 1007.3 hPa SW 4.8 km/h 22.5 km/h 72% 0 mm
16:20 24.3 °C 18.3 °C 1007.3 hPa SW 9.7 km/h 22.5 km/h 69% 0 mm
16:25 24.2 °C 18.4 °C 1007.3 hPa SW 8 km/h 24.1 km/h 70% 0 mm
16:30 24.2 °C 19.1 °C 1007.3 hPa SW 3.2 km/h 24.1 km/h 73% 0 mm
16:35 24.8 °C 19.2 °C 1007.3 hPa SW 8 km/h 19.3 km/h 71% 0 mm
16:40 25.1 °C 19.1 °C 1007.3 hPa SW 14.5 km/h 25.7 km/h 69% 0 mm
16:45 25.3 °C 18.7 °C 1007.3 hPa SW 6.4 km/h 25.7 km/h 67% 0 mm
16:50 25.4 °C 19.1 °C 1007.3 hPa SSW 11.3 km/h 19.3 km/h 68% 0 mm
16:55 25.5 °C 19.8 °C 1007 hPa SW 4.8 km/h 25.7 km/h 71% 0 mm
17:00 25.5 °C 19.6 °C 1007 hPa SW 3.2 km/h 25.7 km/h 70% 0 mm
17:05 25.4 °C 19.3 °C 1007 hPa SW 8 km/h 22.5 km/h 69% 0 mm
17:10 25.2 °C 18.9 °C 1007 hPa SSW 6.4 km/h 24.1 km/h 68% 0 mm
17:15 25 °C 18.9 °C 1007 hPa SSW 4.8 km/h 24.1 km/h 69% 0 mm
17:20 24.8 °C 18.7 °C 1006.7 hPa SSW 9.7 km/h 25.7 km/h 69% 0 mm
17:25 24.8 °C 18.7 °C 1006.7 hPa SSW 8 km/h 25.7 km/h 69% 0 mm
17:30 24.8 °C 18.9 °C 1006.7 hPa SSW 8 km/h 20.9 km/h 70% 0 mm
17:35 24.8 °C 19 °C 1006.7 hPa SSW 6.4 km/h 20.9 km/h 70% 0 mm
17:40 25 °C 19.6 °C 1006.7 hPa SSW 4.8 km/h 20.9 km/h 72% 0 mm
17:45 25.1 °C 19.2 °C 1006.7 hPa SSW 1.6 km/h 12.9 km/h 70% 0 mm
17:50 25 °C 19.4 °C 1006.7 hPa SSW 4.8 km/h 17.7 km/h 71% 0 mm
17:55 24.6 °C 18.7 °C 1006.7 hPa SSW 11.3 km/h 25.7 km/h 70% 0 mm
18:00 24.2 °C 18.8 °C 1006.7 hPa SSW 11.3 km/h 25.7 km/h 72% 0 mm
18:05 23.9 °C 18.8 °C 1006.7 hPa SW 8 km/h 22.5 km/h 73% 0 mm
18:10 23.9 °C 18.8 °C 1006.7 hPa SW 6.4 km/h 20.9 km/h 73% 0 mm
18:15 23.8 °C 18.4 °C 1006.7 hPa SW 14.5 km/h 30.6 km/h 72% 0 mm
18:20 23.7 °C 18.6 °C 1006.7 hPa SSW 8 km/h 30.6 km/h 73% 0 mm
18:25 23.7 °C 18.6 °C 1006.7 hPa SSW 4.8 km/h 20.9 km/h 73% 0 mm
18:30 23.6 °C 18.4 °C 1006.7 hPa SW 9.7 km/h 20.9 km/h 73% 0 mm
18:35 23.4 °C 18.6 °C 1006.7 hPa SW 8 km/h 20.9 km/h 74% 0 mm
18:40 23.4 °C 18.5 °C 1006.7 hPa SW 4.8 km/h 19.3 km/h 74% 0 mm
18:45 23.3 °C 18.4 °C 1006.3 hPa SSW 3.2 km/h 19.3 km/h 74% 0 mm
18:50 23.1 °C 18.4 °C 1006.3 hPa SSW 6.4 km/h 19.3 km/h 75% 0 mm
18:55 22.9 °C 18.1 °C 1006.3 hPa SSW 11.3 km/h 19.3 km/h 74% 0 mm
19:00 22.8 °C 18.2 °C 1006.3 hPa SSW 4.8 km/h 24.1 km/h 75% 0 mm
19:05 22.8 °C 17.9 °C 1006.3 hPa SW 4.8 km/h 24.1 km/h 74% 0 mm
19:10 22.8 °C 17.9 °C 1006.3 hPa SSW 3.2 km/h 24.1 km/h 74% 0 mm
19:15 22.7 °C 17.8 °C 1006.3 hPa SSW 6.4 km/h 17.7 km/h 74% 0 mm
19:20 22.7 °C 17.8 °C 1006.3 hPa South 1.6 km/h 17.7 km/h 74% 0 mm
19:25 22.6 °C 17.9 °C 1006.3 hPa SSW 4.8 km/h 14.5 km/h 75% 0 mm
19:30 22.6 °C 17.9 °C 1006.3 hPa SSE 3.2 km/h 14.5 km/h 75% 0 mm
19:35 22.5 °C 17.8 °C 1006.7 hPa SSW 1.6 km/h 11.3 km/h 75% 0 mm
19:40 22.4 °C 18 °C 1006.3 hPa Calm   9.7 km/h 76% 0 mm
19:45 22.3 °C 17.8 °C 1006.3 hPa Calm   6.4 km/h 76% 0 mm
19:50 22.1 °C 17.9 °C 1006.3 hPa SSW 3.2 km/h 9.7 km/h 77% 0 mm
19:55 22 °C 17.6 °C 1006.3 hPa Calm   9.7 km/h 76% 0 mm
20:00 21.9 °C 17.5 °C 1006 hPa SSW 3.2 km/h 9.7 km/h 76% 0 mm
20:05 21.9 °C 17.5 °C 1006 hPa WSW 1.6 km/h 11.3 km/h 76% 0 mm
20:10 21.9 °C 17.5 °C 1006 hPa SSW 1.6 km/h 11.3 km/h 76% 0 mm
20:15 21.9 °C 17.4 °C 1006 hPa Calm   17.7 km/h 76% 0 mm
20:20 21.8 °C 17.4 °C 1006 hPa SW 3.2 km/h 17.7 km/h 76% 0 mm
20:25 21.8 °C 17.4 °C 1005.6 hPa Calm   11.3 km/h 76% 0 mm
20:30 21.7 °C 17.3 °C 1005.6 hPa SW 1.6 km/h 11.3 km/h 76% 0 mm
20:35 21.7 °C 17.3 °C 1005.3 hPa Calm   11.3 km/h 76% 0 mm
20:40 21.7 °C 17.3 °C 1005.3 hPa South 1.6 km/h 12.9 km/h 76% 0 mm
20:45 21.7 °C 17.3 °C 1005.6 hPa SW 1.6 km/h 12.9 km/h 76% 0 mm
20:50 21.7 °C 17.3 °C 1005.6 hPa SSW 3.2 km/h 11.3 km/h 76% 0 mm
20:55 21.6 °C 17.2 °C 1005.6 hPa Calm   11.3 km/h 76% 0 mm
21:00 21.6 °C 17.3 °C 1006 hPa Calm   9.7 km/h 77% 0 mm
21:05 21.5 °C 17.1 °C 1006 hPa Calm   9.7 km/h 76% 0 mm
21:10 21.4 °C 17.2 °C 1006 hPa Calm   1.6 km/h 77% 0 mm
21:20 21.4 °C 17.4 °C 1006.3 hPa Calm   8 km/h 78% 0 mm
21:25 21.3 °C 17.5 °C 1006.3 hPa Calm   1.6 km/h 79% 0 mm
21:30 21.1 °C 17.1 °C 1006.3 hPa Calm   1.6 km/h 78% 0 mm
21:35 21.1 °C 17.3 °C 1006.3 hPa Calm   1.6 km/h 79% 0 mm
21:40 21.1 °C 17.3 °C 1006.3 hPa Calm   8 km/h 79% 0 mm
21:45 21.1 °C 17.3 °C 1006.3 hPa Calm   8 km/h 79% 0 mm
21:50 21.1 °C 17.1 °C 1006.7 hPa SSW 1.6 km/h 8 km/h 78% 0 mm
21:55 21.2 °C 17.2 °C 1006.3 hPa SSE 1.6 km/h 8 km/h 78% 0 mm
22:00 21.2 °C 17.2 °C 1006.3 hPa South 1.6 km/h 8 km/h 78% 0 mm
22:10 21.2 °C 17.2 °C 1006 hPa Calm   6.4 km/h 78% 0 mm
22:15 21.1 °C 17.3 °C 1006 hPa Calm   4.8 km/h 79% 0 mm
22:20 20.9 °C 17.5 °C 1005.6 hPa Calm     81% 0 mm
22:25 20.7 °C 17.3 °C 1005.6 hPa South 1.6 km/h 4.8 km/h 81% 0 mm
22:30 20.6 °C 17.2 °C 1005.6 hPa SSW 1.6 km/h 8 km/h 81% 0 mm
22:35 20.6 °C 17.2 °C 1005.6 hPa Calm   8 km/h 81% 0 mm
22:40 20.5 °C 17.3 °C 1005.6 hPa Calm   3.2 km/h 82% 0 mm
22:45 20.3 °C 17.2 °C 1005.6 hPa Calm   1.6 km/h 82% 0 mm
22:50 20.2 °C 17.2 °C 1005.6 hPa Calm   4.8 km/h 83% 0 mm
22:55 20.2 °C 17.2 °C 1005.3 hPa Calm   6.4 km/h 83% 0 mm
23:00 20 °C 17 °C 1005.3 hPa SSW 1.6 km/h 6.4 km/h 83% 0 mm
23:05 19.9 °C 17.2 °C 1005.3 hPa Calm   4.8 km/h 84% 0 mm
23:10 19.9 °C 17.2 °C 1005.3 hPa SSW 1.6 km/h 8 km/h 84% 0 mm
23:15 20.1 °C 17.4 °C 1005.3 hPa SSW 4.8 km/h 11.3 km/h 85% 0 mm
23:20 20.1 °C 17.5 °C 1005.3 hPa SSW 1.6 km/h 11.3 km/h 85% 0 mm
23:25 20.3 °C 17.7 °C 1005.3 hPa SW 4.8 km/h 14.5 km/h 85% 0 mm
23:30 20.4 °C 17.8 °C 1005.3 hPa SW 4.8 km/h 14.5 km/h 85% 0 mm
23:35 20.6 °C 17.9 °C 1005.3 hPa SW 4.8 km/h 16.1 km/h 85% 0 mm
23:40 20.6 °C 18 °C 1005.3 hPa SW 8 km/h 17.7 km/h 85% 0 mm
23:45 20.8 °C 18.2 °C 1005.3 hPa SW 6.4 km/h 17.7 km/h 85% 0 mm
23:50 20.9 °C 18.3 °C 1005.3 hPa SW 9.7 km/h 16.1 km/h 85% 0 mm
23:55 20.9 °C 18.3 °C 1005.3 hPa SSW 4.8 km/h 16.1 km/h 85% 0 mm
Westford Weather
Compliments of Weather Underground

 
 
Current Radar Loop:

Copyright © WestfordWeather.net 2007-2014. All rights reserved.